Time;durP1;ratioP1;P1;durP2;ratioP2;P2;SDS_P1;SDS_P2;PMS_P1;PMS_P2;Temp;Humidity;BMP_temperature;BMP_pressure;BME280_temperature;BME280_humidity;BME280_pressure;Samples;Min_cycle;Max_cycle;Signal;HPM_P1;HPM_P2
2023/09/18 00:02:42;;;;;;;10.93;9.65;;;;;;;;;;10053813;28;20095;-76
2023/09/18 00:07:34;;;;;;;19.80;9.10;;;;;;;;;;10057306;28;20037;-77
2023/09/18 00:12:26;;;;;;;15.27;9.63;;;;;;;;;;10070267;28;20111;-76
2023/09/18 00:17:19;;;;;;;13.77;9.18;;;;;;;;;;10070660;28;20160;-77
2023/09/18 00:22:11;;;;;;;10.68;9.25;;;;;;;;;;10070975;28;20465;-77
2023/09/18 00:27:03;;;;;;;18.70;10.23;;;;;;;;;;10072070;28;20041;-77
2023/09/18 00:31:55;;;;;;;14.00;10.27;;;;;;;;;;10071131;28;20049;-76
2023/09/18 00:36:47;;;;;;;12.63;10.52;;;;;;;;;;10069872;28;20041;-76
2023/09/18 00:41:39;;;;;;;14.45;11.30;;;;;;;;;;10068691;28;20042;-78
2023/09/18 00:46:31;;;;;;;13.55;11.05;;;;;;;;;;10068633;28;20045;-76
2023/09/18 00:51:23;;;;;;;14.30;10.90;;;;;;;;;;10068582;28;20068;-76
2023/09/18 00:56:16;;;;;;;17.02;11.70;;;;;;;;;;10050283;28;20392;-77
2023/09/18 01:01:09;;;;;;;20.42;13.88;;;;;;;;;;10052092;28;20043;-77
2023/09/18 01:06:03;;;;;;;11.32;10.10;;;;;;;;;;10051265;28;20053;-77
2023/09/18 01:11:09;;;;;;;17.52;10.68;;;;;;;;;;10068362;28;20353;-75
2023/09/18 01:16:10;;;;;;;20.98;11.50;;;;;;;;;;10051141;28;20037;-77
2023/09/18 01:21:02;;;;;;;19.25;10.85;;;;;;;;;;10039302;28;20049;-76
2023/09/18 01:25:54;;;;;;;19.15;11.73;;;;;;;;;;10062789;28;20052;-77
2023/09/18 01:30:46;;;;;;;15.68;12.75;;;;;;;;;;10049076;28;20479;-77
2023/09/18 01:35:39;;;;;;;22.27;13.20;;;;;;;;;;10049536;28;20468;-77
2023/09/18 01:40:31;;;;;;;17.95;13.80;;;;;;;;;;10067627;28;20045;-76
2023/09/18 01:45:23;;;;;;;21.33;13.60;;;;;;;;;;10049893;28;20459;-77
2023/09/18 01:50:15;;;;;;;15.82;11.80;;;;;;;;;;10067882;28;20067;-77
2023/09/18 01:55:08;;;;;;;16.13;11.75;;;;;;;;;;10049796;28;20063;-77
2023/09/18 02:00:00;;;;;;;19.50;13.00;;;;;;;;;;10066047;28;20467;-76
2023/09/18 02:04:52;;;;;;;18.20;12.15;;;;;;;;;;10065745;28;20057;-77
2023/09/18 02:09:58;;;;;;;15.77;13.60;;;;;;;;;;10066944;28;20077;-77
2023/09/18 02:14:50;;;;;;;16.02;14.27;;;;;;;;;;10067040;28;20042;-78
2023/09/18 02:19:43;;;;;;;18.00;14.50;;;;;;;;;;10047902;28;20053;-76
2023/09/18 02:24:34;;;;;;;18.48;15.00;;;;;;;;;;10064425;28;20072;-76
2023/09/18 02:29:26;;;;;;;17.27;12.57;;;;;;;;;;10066204;28;20531;-77
2023/09/18 02:34:19;;;;;;;14.93;13.60;;;;;;;;;;10068000;28;20366;-77
2023/09/18 02:39:13;;;;;;;17.80;12.95;;;;;;;;;;10051438;28;20919;-78
2023/09/18 02:44:05;;;;;;;17.80;13.60;;;;;;;;;;10066389;28;20384;-78
2023/09/18 02:48:57;;;;;;;18.58;13.05;;;;;;;;;;10064989;28;20187;-78
2023/09/18 02:53:49;;;;;;;16.55;14.63;;;;;;;;;;10047221;28;20056;-77
2023/09/18 02:58:40;;;;;;;19.92;13.10;;;;;;;;;;10048486;28;20042;-77
2023/09/18 03:03:33;;;;;;;21.77;12.65;;;;;;;;;;10049720;28;20045;-78
2023/09/18 03:08:25;;;;;;;14.80;10.95;;;;;;;;;;10047718;28;20041;-77
2023/09/18 03:13:17;;;;;;;16.90;13.38;;;;;;;;;;10047642;28;20140;-76
2023/09/18 03:18:09;;;;;;;14.88;11.70;;;;;;;;;;10063819;28;20256;-78
2023/09/18 03:23:03;;;;;;;19.35;13.02;;;;;;;;;;10048182;28;20072;-77
2023/09/18 03:27:57;;;;;;;15.85;11.65;;;;;;;;;;10064866;28;20049;-78
2023/09/18 03:32:53;;;;;;;23.48;15.10;;;;;;;;;;10047895;28;20124;-79
2023/09/18 03:37:50;;;;;;;15.65;14.07;;;;;;;;;;10053704;28;20041;-78
2023/09/18 03:42:41;;;;;;;22.90;12.93;;;;;;;;;;10071240;28;20041;-78
2023/09/18 03:47:41;;;;;;;14.63;12.63;;;;;;;;;;10052825;28;20414;-78
2023/09/18 03:52:33;;;;;;;17.67;14.85;;;;;;;;;;10054587;28;20091;-78
2023/09/18 03:57:25;;;;;;;15.55;13.93;;;;;;;;;;10053565;28;20115;-78
2023/09/18 04:02:19;;;;;;;16.27;12.98;;;;;;;;;;10069958;28;20037;-78
2023/09/18 04:07:11;;;;;;;24.13;17.25;;;;;;;;;;10054955;28;20033;-78
2023/09/18 04:12:07;;;;;;;20.58;15.07;;;;;;;;;;10072437;28;20049;-78
2023/09/18 04:17:00;;;;;;;13.88;12.38;;;;;;;;;;10052550;28;20103;-78
2023/09/18 04:21:52;;;;;;;18.65;16.35;;;;;;;;;;10051568;28;20055;-78
2023/09/18 04:26:44;;;;;;;18.40;14.00;;;;;;;;;;10052993;28;20038;-77
2023/09/18 04:31:37;;;;;;;17.42;14.10;;;;;;;;;;10050718;28;20052;-77
2023/09/18 04:36:30;;;;;;;15.85;14.07;;;;;;;;;;10051439;28;20481;-78
2023/09/18 04:41:22;;;;;;;18.73;13.38;;;;;;;;;;10035653;28;20132;-78
2023/09/18 04:46:16;;;;;;;15.05;11.98;;;;;;;;;;10051302;28;20041;-78
2023/09/18 04:51:09;;;;;;;22.70;14.27;;;;;;;;;;10052185;28;20058;-77
2023/09/18 04:56:03;;;;;;;19.10;15.43;;;;;;;;;;10051424;28;20133;-78
2023/09/18 05:00:56;;;;;;;22.13;15.18;;;;;;;;;;10050724;28;20046;-78
2023/09/18 05:05:49;;;;;;;20.20;15.35;;;;;;;;;;10074633;28;20450;-78
2023/09/18 05:10:42;;;;;;;20.70;13.93;;;;;;;;;;10063553;28;20159;-77
2023/09/18 05:15:34;;;;;;;20.88;15.50;;;;;;;;;;10082692;28;20471;-76
2023/09/18 05:20:27;;;;;;;16.23;13.70;;;;;;;;;;10073932;28;20054;-77
2023/09/18 05:25:21;;;;;;;17.45;12.35;;;;;;;;;;10102476;28;20446;-78
2023/09/18 05:30:22;;;;;;;16.48;11.95;;;;;;;;;;10090630;28;20131;-72
2023/09/18 05:35:15;;;;;;;26.20;14.68;;;;;;;;;;10094599;28;20067;-73
2023/09/18 05:40:11;;;;;;;18.85;14.82;;;;;;;;;;10076826;28;20045;-72
2023/09/18 05:45:06;;;;;;;24.00;14.57;;;;;;;;;;10084242;28;20037;-72
2023/09/18 05:49:58;;;;;;;17.58;14.48;;;;;;;;;;10075754;28;20038;-71
2023/09/18 05:54:49;;;;;;;20.92;15.77;;;;;;;;;;10095932;28;20056;-70
2023/09/18 05:59:44;;;;;;;20.95;15.93;;;;;;;;;;10085711;28;20037;-70
2023/09/18 06:04:36;;;;;;;18.67;15.27;;;;;;;;;;10060892;28;20463;-70
2023/09/18 06:09:28;;;;;;;19.63;14.13;;;;;;;;;;10076570;28;20038;-72
2023/09/18 06:14:20;;;;;;;16.42;13.82;;;;;;;;;;10084206;28;20037;-72
2023/09/18 06:19:13;;;;;;;19.45;13.23;;;;;;;;;;10089403;28;20064;-72
2023/09/18 06:24:06;;;;;;;16.33;14.63;;;;;;;;;;10085281;28;20053;-71
2023/09/18 06:28:57;;;;;;;21.13;15.73;;;;;;;;;;10077151;28;20103;-71
2023/09/18 06:33:49;;;;;;;29.42;15.82;;;;;;;;;;10094769;28;20041;-71
2023/09/18 06:38:41;;;;;;;21.10;15.93;;;;;;;;;;10097096;28;20041;-71
2023/09/18 06:43:33;;;;;;;23.27;16.58;;;;;;;;;;10092312;28;20467;-71
2023/09/18 06:48:25;;;;;;;17.25;15.43;;;;;;;;;;10067612;28;20076;-71
2023/09/18 06:53:17;;;;;;;23.48;16.85;;;;;;;;;;10061249;28;20049;-70
2023/09/18 06:58:09;;;;;;;21.50;16.42;;;;;;;;;;10083315;28;20049;-71
2023/09/18 07:03:01;;;;;;;22.60;16.08;;;;;;;;;;10075144;28;20049;-71
2023/09/18 07:07:57;;;;;;;21.63;17.50;;;;;;;;;;10064168;28;20142;-71
2023/09/18 07:12:48;;;;;;;22.35;18.05;;;;;;;;;;10070754;28;20072;-70
2023/09/18 07:17:40;;;;;;;21.83;17.48;;;;;;;;;;10069598;28;20046;-71
2023/09/18 07:22:32;;;;;;;17.10;15.05;;;;;;;;;;10067779;28;20045;-70
2023/09/18 07:27:24;;;;;;;18.88;16.95;;;;;;;;;;10071744;28;20037;-71
2023/09/18 07:32:16;;;;;;;27.85;17.73;;;;;;;;;;10070051;28;20050;-71
2023/09/18 07:37:27;;;;;;;19.35;16.38;;;;;;;;;;10069697;28;20089;-72
2023/09/18 07:42:19;;;;;;;25.42;16.77;;;;;;;;;;10069089;28;20045;-72
2023/09/18 07:47:11;;;;;;;21.40;17.23;;;;;;;;;;10068822;28;20049;-72
2023/09/18 07:52:03;;;;;;;23.23;17.60;;;;;;;;;;10068407;28;20426;-72
2023/09/18 07:56:55;;;;;;;26.42;19.38;;;;;;;;;;10068330;28;20045;-71
2023/09/18 08:01:48;;;;;;;23.15;16.33;;;;;;;;;;10073312;28;20088;-72
2023/09/18 08:06:41;;;;;;;16.67;13.38;;;;;;;;;;10067366;28;20329;-72
2023/09/18 08:11:33;;;;;;;20.40;14.30;;;;;;;;;;10070455;28;20048;-70
2023/09/18 08:16:25;;;;;;;22.35;16.67;;;;;;;;;;10070896;28;20526;-71
2023/09/18 08:21:17;;;;;;;22.90;16.98;;;;;;;;;;10068630;28;20123;-70
2023/09/18 08:26:09;;;;;;;19.23;16.75;;;;;;;;;;10069699;28;20087;-70
2023/09/18 08:31:01;;;;;;;21.70;16.90;;;;;;;;;;10070305;28;20041;-69
2023/09/18 08:35:53;;;;;;;21.98;17.27;;;;;;;;;;10069951;28;20047;-69
2023/09/18 08:40:45;;;;;;;19.58;13.68;;;;;;;;;;10070506;28;20136;-68
2023/09/18 08:45:37;;;;;;;15.82;14.20;;;;;;;;;;10070170;28;20349;-70
2023/09/18 08:50:29;;;;;;;17.63;13.65;;;;;;;;;;10069121;28;20539;-70
2023/09/18 08:55:22;;;;;;;18.67;14.40;;;;;;;;;;10051829;28;20467;-69
2023/09/18 09:00:17;;;;;;;20.75;12.60;;;;;;;;;;10054530;28;20041;-69
2023/09/18 09:05:09;;;;;;;29.02;17.35;;;;;;;;;;10053516;28;20037;-70
2023/09/18 09:10:01;;;;;;;25.02;18.65;;;;;;;;;;10072016;28;20049;-70
2023/09/18 09:15:02;;;;;;;20.05;15.57;;;;;;;;;;10084123;28;20432;-70
2023/09/18 09:20:08;;;;;;;22.52;16.88;;;;;;;;;;10105938;28;20045;-69
2023/09/18 09:25:00;;;;;;;22.85;16.98;;;;;;;;;;10073331;28;20157;-69
2023/09/18 09:30:01;;;;;;;28.02;19.30;;;;;;;;;;10069534;28;20048;-69
2023/09/18 09:34:58;;;;;;;24.23;20.90;;;;;;;;;;10076262;28;20067;-69
2023/09/18 09:39:50;;;;;;;27.58;19.25;;;;;;;;;;10071181;28;20060;-70
2023/09/18 09:44:43;;;;;;;19.95;17.95;;;;;;;;;;10095321;28;20050;-70
2023/09/18 09:49:47;;;;;;;24.27;19.35;;;;;;;;;;10067055;28;20104;-70
2023/09/18 09:54:40;;;;;;;34.65;18.35;;;;;;;;;;10074341;28;20100;-68
2023/09/18 09:59:35;;;;;;;21.02;15.77;;;;;;;;;;10068049;28;20153;-69
2023/09/18 10:04:29;;;;;;;18.35;14.48;;;;;;;;;;10070354;28;20044;-69
2023/09/18 10:09:21;;;;;;;16.20;14.38;;;;;;;;;;10067230;28;20045;-69
2023/09/18 10:14:16;;;;;;;22.25;14.43;;;;;;;;;;10048331;28;20045;-70
2023/09/18 10:19:33;;;;;;;17.35;14.23;;;;;;;;;;10044364;28;20049;-69
2023/09/18 10:24:31;;;;;;;16.77;14.13;;;;;;;;;;10050134;28;20128;-68
2023/09/18 10:29:26;;;;;;;20.40;15.93;;;;;;;;;;10064777;28;20056;-67
2023/09/18 10:34:19;;;;;;;21.90;15.20;;;;;;;;;;10067780;28;20463;-69
2023/09/18 10:39:12;;;;;;;19.15;15.32;;;;;;;;;;10084184;28;20069;-70
2023/09/18 10:44:05;;;;;;;20.92;14.80;;;;;;;;;;10086320;28;20047;-69
2023/09/18 10:48:57;;;;;;;15.07;12.15;;;;;;;;;;10071001;28;20037;-69
2023/09/18 10:53:49;;;;;;;14.15;11.07;;;;;;;;;;10055633;28;20053;-68
2023/09/18 10:58:41;;;;;;;20.13;13.20;;;;;;;;;;10085577;28;20547;-67
2023/09/18 11:03:33;;;;;;;67.55;28.60;;;;;;;;;;10060297;28;20052;-62
2023/09/18 11:08:46;;;;;;;112.38;43.63;;;;;;;;;;10072446;28;20456;-63
2023/09/18 11:13:43;;;;;;;25.58;15.68;;;;;;;;;;10071790;28;20049;-63
2023/09/18 11:18:37;;;;;;;39.88;19.30;;;;;;;;;;10071913;28;20065;-64
2023/09/18 11:23:36;;;;;;;25.88;16.00;;;;;;;;;;10073402;28;20107;-64
2023/09/18 11:28:31;;;;;;;33.03;22.23;;;;;;;;;;10072854;28;20153;-64
2023/09/18 11:33:44;;;;;;;21.83;16.63;;;;;;;;;;10055947;28;20442;-64
2023/09/18 11:38:51;;;;;;;20.13;16.45;;;;;;;;;;10082069;28;20064;-63
2023/09/18 11:43:48;;;;;;;21.73;14.55;;;;;;;;;;10088092;28;20033;-63
2023/09/18 11:48:41;;;;;;;32.90;17.10;;;;;;;;;;10075409;28;20045;-64
2023/09/18 11:53:36;;;;;;;37.25;21.73;;;;;;;;;;10069344;28;20053;-62
2023/09/18 11:58:29;;;;;;;42.65;22.55;;;;;;;;;;10057073;28;20077;-64
2023/09/18 12:03:25;;;;;;;28.73;15.23;;;;;;;;;;10059248;28;20037;-64
2023/09/18 12:08:18;;;;;;;32.05;19.40;;;;;;;;;;10066738;28;20033;-64
2023/09/18 12:13:11;;;;;;;33.67;16.55;;;;;;;;;;10066423;28;20049;-64
2023/09/18 12:18:08;;;;;;;18.92;10.98;;;;;;;;;;10051633;28;20099;-64
2023/09/18 12:23:02;;;;;;;24.83;9.63;;;;;;;;;;10069738;28;20087;-64
2023/09/18 12:27:55;;;;;;;23.90;11.07;;;;;;;;;;10071218;28;20124;-63
2023/09/18 12:32:50;;;;;;;36.80;9.15;;;;;;;;;;10071023;28;20045;-63
2023/09/18 12:37:42;;;;;;;47.70;10.25;;;;;;;;;;10062165;28;20049;-64
2023/09/18 12:42:34;;;;;;;40.08;8.07;;;;;;;;;;10080059;28;20072;-63
2023/09/18 12:47:25;;;;;;;58.90;10.02;;;;;;;;;;10074755;28;20133;-63
2023/09/18 12:52:22;;;;;;;55.53;10.48;;;;;;;;;;10070029;28;20472;-64
2023/09/18 12:57:16;;;;;;;35.08;7.43;;;;;;;;;;10086304;28;20160;-64
2023/09/18 13:02:08;;;;;;;44.17;10.32;;;;;;;;;;10080227;28;20092;-64
2023/09/18 13:07:09;;;;;;;52.17;8.32;;;;;;;;;;10063232;28;20562;-64
2023/09/18 13:12:01;;;;;;;31.70;6.13;;;;;;;;;;10070193;28;20074;-64
2023/09/18 13:16:53;;;;;;;33.75;9.02;;;;;;;;;;10069213;28;20065;-63
2023/09/18 13:21:49;;;;;;;42.70;8.27;;;;;;;;;;10067793;28;20886;-64
2023/09/18 13:26:43;;;;;;;48.42;7.75;;;;;;;;;;10085905;28;20125;-64
2023/09/18 13:31:35;;;;;;;38.83;8.20;;;;;;;;;;10067912;28;20076;-62
2023/09/18 13:36:27;;;;;;;36.45;6.72;;;;;;;;;;10060811;28;20159;-65
2023/09/18 13:41:18;;;;;;;34.55;8.30;;;;;;;;;;10085726;28;20049;-64
2023/09/18 13:46:10;;;;;;;33.80;7.38;;;;;;;;;;10092509;28;20046;-63
2023/09/18 13:51:03;;;;;;;42.78;8.57;;;;;;;;;;10067680;28;20044;-64
2023/09/18 13:55:56;;;;;;;35.08;7.43;;;;;;;;;;10071001;28;20072;-64
2023/09/18 14:00:48;;;;;;;24.58;8.23;;;;;;;;;;10074014;28;20061;-64
2023/09/18 14:05:40;;;;;;;33.38;9.25;;;;;;;;;;10069599;28;20049;-64
2023/09/18 14:10:32;;;;;;;40.17;6.60;;;;;;;;;;10071780;28;20168;-65
2023/09/18 14:15:24;;;;;;;34.35;5.57;;;;;;;;;;10065478;28;20049;-65
2023/09/18 14:20:19;;;;;;;30.75;6.57;;;;;;;;;;10080226;28;20049;-65
2023/09/18 14:25:11;;;;;;;39.20;8.55;;;;;;;;;;10075193;28;20128;-65
2023/09/18 14:30:06;;;;;;;36.85;7.40;;;;;;;;;;10102426;28;20045;-64
2023/09/18 14:35:01;;;;;;;31.77;6.03;;;;;;;;;;10094754;28;20049;-64
2023/09/18 14:39:53;;;;;;;28.58;5.35;;;;;;;;;;10074605;28;20058;-64
2023/09/18 14:44:45;;;;;;;29.27;5.38;;;;;;;;;;10068362;28;20124;-65
2023/09/18 14:49:38;;;;;;;27.80;5.40;;;;;;;;;;10075158;28;20128;-65
2023/09/18 14:54:30;;;;;;;24.50;5.00;;;;;;;;;;10077064;28;20510;-65
2023/09/18 14:59:22;;;;;;;25.48;5.25;;;;;;;;;;10071974;28;20115;-65
2023/09/18 15:04:33;;;;;;;18.67;5.53;;;;;;;;;;10069073;28;20124;-64
2023/09/18 15:09:25;;;;;;;29.55;5.53;;;;;;;;;;10073473;28;20078;-65
2023/09/18 15:14:17;;;;;;;22.50;4.68;;;;;;;;;;10100733;28;20371;-64
2023/09/18 15:19:10;;;;;;;31.30;4.70;;;;;;;;;;10110043;28;20425;-64
2023/09/18 15:24:03;;;;;;;23.98;4.68;;;;;;;;;;10102309;28;20123;-64
2023/09/18 15:28:55;;;;;;;17.25;4.03;;;;;;;;;;10098542;28;20132;-63
2023/09/18 15:33:47;;;;;;;28.75;5.85;;;;;;;;;;10105508;28;20140;-65
2023/09/18 15:38:39;;;;;;;12.77;3.95;;;;;;;;;;10076449;28;20051;-63
2023/09/18 15:43:33;;;;;;;17.90;4.35;;;;;;;;;;10103790;28;20041;-63
2023/09/18 15:48:28;;;;;;;14.27;3.50;;;;;;;;;;10099218;28;20037;-60
2023/09/18 15:53:20;;;;;;;22.55;4.25;;;;;;;;;;10079675;28;20085;-61
2023/09/18 15:58:12;;;;;;;16.67;4.72;;;;;;;;;;10072649;28;20049;-62
2023/09/18 16:03:04;;;;;;;17.70;5.25;;;;;;;;;;10114004;28;20054;-63
2023/09/18 16:07:59;;;;;;;19.42;4.80;;;;;;;;;;10094953;28;20144;-63
2023/09/18 16:12:56;;;;;;;15.98;4.10;;;;;;;;;;10092054;28;20037;-63
2023/09/18 16:17:48;;;;;;;19.38;4.15;;;;;;;;;;10068750;28;20541;-61
2023/09/18 16:22:42;;;;;;;22.85;5.28;;;;;;;;;;10098483;28;20375;-63
2023/09/18 16:27:33;;;;;;;19.30;3.83;;;;;;;;;;10093054;28;20040;-63
2023/09/18 16:32:28;;;;;;;21.73;4.35;;;;;;;;;;10074266;28;20136;-62
2023/09/18 16:37:20;;;;;;;17.85;5.00;;;;;;;;;;10070697;28;20506;-63
2023/09/18 16:42:12;;;;;;;43.10;7.60;;;;;;;;;;10094434;28;20195;-63
2023/09/18 16:47:04;;;;;;;19.33;6.47;;;;;;;;;;10073348;28;20129;-63
2023/09/18 16:51:55;;;;;;;22.17;3.58;;;;;;;;;;10085140;28;20048;-64
2023/09/18 16:56:48;;;;;;;14.57;3.20;;;;;;;;;;10088577;28;20084;-61
2023/09/18 17:01:39;;;;;;;13.57;3.92;;;;;;;;;;10071335;28;20048;-61
2023/09/18 17:06:34;;;;;;;10.73;3.00;;;;;;;;;;10088618;28;20088;-62
2023/09/18 17:11:26;;;;;;;21.05;4.40;;;;;;;;;;10100294;28;20103;-63
2023/09/18 17:16:19;;;;;;;23.30;5.38;;;;;;;;;;10085671;28;20102;-61
2023/09/18 17:21:11;;;;;;;13.45;5.00;;;;;;;;;;10070811;28;20148;-63
2023/09/18 17:26:03;;;;;;;20.35;4.40;;;;;;;;;;10080030;28;20049;-63
2023/09/18 17:30:57;;;;;;;20.80;4.35;;;;;;;;;;10079245;28;20048;-63
2023/09/18 17:35:49;;;;;;;11.20;3.28;;;;;;;;;;10101706;28;20442;-62
2023/09/18 17:40:41;;;;;;;14.50;4.40;;;;;;;;;;10095683;28;20045;-62
2023/09/18 17:45:33;;;;;;;14.80;3.60;;;;;;;;;;10069081;28;20132;-63
2023/09/18 17:50:26;;;;;;;25.65;4.95;;;;;;;;;;10094777;28;20033;-59
2023/09/18 17:55:18;;;;;;;17.08;5.38;;;;;;;;;;10068850;28;20045;-63
2023/09/18 18:00:15;;;;;;;20.77;4.80;;;;;;;;;;10066841;28;20049;-62
2023/09/18 18:05:07;;;;;;;18.85;3.65;;;;;;;;;;10065386;28;20050;-62
2023/09/18 18:10:00;;;;;;;15.05;3.55;;;;;;;;;;10076040;28;20103;-62
2023/09/18 18:14:52;;;;;;;17.50;3.10;;;;;;;;;;10065934;28;20184;-62
2023/09/18 18:19:44;;;;;;;15.05;4.55;;;;;;;;;;10076755;28;20042;-63
2023/09/18 18:24:36;;;;;;;20.17;3.78;;;;;;;;;;10062983;28;20053;-63
2023/09/18 18:29:28;;;;;;;15.98;3.42;;;;;;;;;;10063242;28;20041;-63
2023/09/18 18:34:20;;;;;;;29.33;3.65;;;;;;;;;;10064863;28;20096;-63
2023/09/18 18:39:12;;;;;;;16.35;4.05;;;;;;;;;;10057215;28;20132;-64
2023/09/18 18:44:05;;;;;;;23.67;7.10;;;;;;;;;;10086098;28;20356;-63
2023/09/18 18:48:56;;;;;;;30.95;8.73;;;;;;;;;;10068166;28;20124;-63
2023/09/18 18:53:48;;;;;;;21.67;3.45;;;;;;;;;;10067682;28;20049;-62
2023/09/18 18:58:41;;;;;;;11.35;3.03;;;;;;;;;;10066933;28;20541;-64
2023/09/18 19:03:37;;;;;;;15.38;5.82;;;;;;;;;;10080845;28;20128;-63
2023/09/18 19:08:32;;;;;;;18.92;5.22;;;;;;;;;;10068840;28;20154;-63
2023/09/18 19:13:25;;;;;;;20.05;4.97;;;;;;;;;;10069858;28;20046;-63
2023/09/18 19:18:17;;;;;;;19.75;4.38;;;;;;;;;;10087218;28;20089;-64
2023/09/18 19:23:09;;;;;;;18.17;3.50;;;;;;;;;;10084247;28;20072;-63
2023/09/18 19:28:11;;;;;;;19.25;6.03;;;;;;;;;;10082452;28;20045;-62
2023/09/18 19:33:04;;;;;;;13.82;6.68;;;;;;;;;;10074062;28;20068;-63
2023/09/18 19:37:56;;;;;;;23.88;5.28;;;;;;;;;;10087609;28;20132;-64
2023/09/18 19:42:48;;;;;;;12.85;3.67;;;;;;;;;;10073598;28;20056;-63
2023/09/18 19:47:40;;;;;;;20.15;4.10;;;;;;;;;;10074780;28;20160;-60
2023/09/18 19:52:33;;;;;;;20.90;3.70;;;;;;;;;;10082506;28;20518;-60
2023/09/18 19:57:25;;;;;;;20.92;3.75;;;;;;;;;;10075612;28;20484;-61
2023/09/18 20:02:17;;;;;;;23.45;5.60;;;;;;;;;;10071244;28;20476;-60
2023/09/18 20:07:10;;;;;;;15.95;4.40;;;;;;;;;;10086499;28;20050;-61
2023/09/18 20:12:02;;;;;;;19.30;4.85;;;;;;;;;;10073916;28;20057;-61
2023/09/18 20:16:54;;;;;;;17.73;4.47;;;;;;;;;;10080339;28;20041;-62
2023/09/18 20:21:50;;;;;;;12.02;4.00;;;;;;;;;;10088796;28;20079;-63
2023/09/18 20:26:46;;;;;;;15.27;5.30;;;;;;;;;;10095228;28;20055;-62
2023/09/18 20:31:38;;;;;;;22.73;5.45;;;;;;;;;;10088779;28;20125;-63
2023/09/18 20:36:31;;;;;;;16.02;4.32;;;;;;;;;;10100128;28;20072;-63
2023/09/18 20:41:23;;;;;;;22.15;4.43;;;;;;;;;;10084479;28;20080;-64
2023/09/18 20:46:15;;;;;;;14.13;3.50;;;;;;;;;;10094561;28;20083;-63
2023/09/18 20:51:07;;;;;;;18.52;3.95;;;;;;;;;;10097274;28;20041;-69
2023/09/18 20:55:59;;;;;;;17.08;3.88;;;;;;;;;;10077244;28;20140;-70
2023/09/18 21:00:51;;;;;;;25.63;6.47;;;;;;;;;;10081630;28;20075;-69
2023/09/18 21:05:43;;;;;;;25.27;5.07;;;;;;;;;;10102123;28;20045;-69
2023/09/18 21:10:37;;;;;;;33.63;5.95;;;;;;;;;;10094425;28;20049;-70
2023/09/18 21:15:29;;;;;;;20.25;5.75;;;;;;;;;;10073596;28;20057;-68
2023/09/18 21:20:21;;;;;;;16.92;4.78;;;;;;;;;;10069879;28;20106;-69
2023/09/18 21:25:13;;;;;;;19.35;3.58;;;;;;;;;;10080128;28;20446;-70
2023/09/18 21:30:07;;;;;;;17.70;5.63;;;;;;;;;;10102139;28;20072;-70
2023/09/18 21:34:59;;;;;;;20.58;4.05;;;;;;;;;;10069560;28;20053;-69
2023/09/18 21:39:51;;;;;;;16.65;5.15;;;;;;;;;;10077439;28;20099;-69
2023/09/18 21:44:43;;;;;;;21.75;3.80;;;;;;;;;;10095997;28;20057;-70
2023/09/18 21:49:39;;;;;;;20.00;5.07;;;;;;;;;;10083567;28;20037;-70
2023/09/18 21:54:31;;;;;;;14.07;4.22;;;;;;;;;;10095420;28;20068;-71
2023/09/18 21:59:23;;;;;;;17.38;4.43;;;;;;;;;;10063807;28;20399;-70
2023/09/18 22:04:17;;;;;;;19.15;4.47;;;;;;;;;;10093295;28;20131;-68
2023/09/18 22:09:15;;;;;;;24.88;5.97;;;;;;;;;;10074860;28;20379;-69
2023/09/18 22:14:10;;;;;;;19.95;4.65;;;;;;;;;;10065493;28;20065;-68
2023/09/18 22:19:02;;;;;;;17.20;3.47;;;;;;;;;;10066407;28;20045;-70
2023/09/18 22:23:54;;;;;;;13.65;4.03;;;;;;;;;;10066936;28;20463;-68
2023/09/18 22:28:46;;;;;;;18.20;4.40;;;;;;;;;;10081842;28;20049;-69
2023/09/18 22:33:40;;;;;;;16.75;3.90;;;;;;;;;;10072655;28;20107;-70
2023/09/18 22:38:43;;;;;;;16.33;4.25;;;;;;;;;;10066907;28;20136;-70
2023/09/18 22:44:13;;;;;;;10.45;3.35;;;;;;;;;;10075170;28;20038;-70
2023/09/18 22:49:42;;;;;;;19.05;5.22;;;;;;;;;;10070950;28;20049;-70
2023/09/18 22:54:43;;;;;;;16.40;3.85;;;;;;;;;;10066637;28;20080;-70
2023/09/18 22:59:35;;;;;;;10.15;4.10;;;;;;;;;;10055860;28;20052;-70
2023/09/18 23:04:28;;;;;;;12.55;4.60;;;;;;;;;;10048343;28;20475;-71
2023/09/18 23:09:20;;;;;;;14.75;4.88;;;;;;;;;;10065986;28;20068;-70
2023/09/18 23:14:13;;;;;;;10.25;4.07;;;;;;;;;;10067785;28;20052;-70
2023/09/18 23:19:04;;;;;;;16.10;4.07;;;;;;;;;;10085755;28;20140;-71
2023/09/18 23:23:57;;;;;;;14.85;4.80;;;;;;;;;;10071629;28;20116;-70
2023/09/18 23:28:49;;;;;;;16.00;4.68;;;;;;;;;;10065066;28;20534;-70
2023/09/18 23:33:41;;;;;;;18.42;4.45;;;;;;;;;;10068159;28;20052;-70
2023/09/18 23:38:33;;;;;;;19.73;5.63;;;;;;;;;;10068996;28;20437;-71
2023/09/18 23:43:26;;;;;;;16.42;4.07;;;;;;;;;;10068067;28;20468;-70
2023/09/18 23:48:19;;;;;;;23.45;4.68;;;;;;;;;;10063862;28;20755;-71
2023/09/18 23:53:14;;;;;;;25.70;6.15;;;;;;;;;;10080308;28;20139;-69
2023/09/18 23:58:08;;;;;;;11.50;3.95;;;;;;;;;;10073001;28;20136;-71
